This is the latest recevied weather packets stored in our database for station/object JA6YCL-13. If no packets are shown the sender has not sent any weather packets the latest 10 day(s).
| Time | Temp. | Humidity | Pressure | Rain* | Wind** | Luminosity | Snow |
|---|---|---|---|---|---|---|---|
| 1777618324 | 19.44° C | 42% | 1006.5 hPa | 0 mm | - | - | - |
| 1777617567 | 19.44° C | 44% | 1006.7 hPa | 0 mm | - | - | - |
| 1777616771 | 18.89° C | 45% | 1006.7 hPa | 0 mm | - | - | - |
| 1777615916 | 19.44° C | 44% | 1007 hPa | 0 mm | - | - | - |
| 1777615121 | 19.44° C | 43% | 1007 hPa | 0 mm | - | - | - |
| 1777614231 | 18.33° C | 44% | 1007 hPa | 0 mm | - | - | - |
| 1777613381 | 18.89° C | 41% | 1007 hPa | 0 mm | - | - | - |
| 1777612543 | 18.89° C | 43% | 1007.2 hPa | 0 mm | - | - | - |
| 1777611686 | 18.33° C | 42% | 1007.4 hPa | 0 mm | - | - | - |
| 1777610835 | 19.44° C | 39% | 1007 hPa | 0 mm | - | - | - |
| 1777609951 | 18.89° C | 39% | 1007.2 hPa | 0 mm | - | - | - |
| 1777609112 | 19.44° C | 37% | 1007.1 hPa | 0 mm | - | - | - |
| 1777608346 | 19.44° C | 38% | 1007.1 hPa | 0 mm | - | - | - |
| 1777607609 | 19.44° C | 36% | 1007.1 hPa | 0 mm | - | - | - |
| 1777606739 | 18.89° C | 38% | 1007.3 hPa | 0 mm | - | - | - |
| 1777605878 | 18.89° C | 39% | 1007.4 hPa | 0 mm | - | - | - |
| 1777605086 | 18.89° C | 39% | 1007.2 hPa | 0 mm | - | - | - |
| 1777604293 | 18.89° C | 39% | 1007.9 hPa | 0 mm | - | - | - |
| 1777603427 | 18.33° C | 41% | 1008 hPa | 0 mm | - | - | - |
| 1777602616 | 18.33° C | 42% | 1007.9 hPa | 0 mm | - | - | - |
| 1777601781 | 18.33° C | 42% | 1008 hPa | 0 mm | - | - | - |
| 1777600946 | 17.78° C | 41% | 1008.1 hPa | 0 mm | - | - | - |
| 1777600071 | 17.78° C | 42% | 1008.2 hPa | 0 mm | - | - | - |
| 1777599276 | 17.78° C | 45% | 1008.5 hPa | 0 mm | - | - | - |
| 1777598448 | 17.22° C | 45% | 1008.6 hPa | 0 mm | - | - | - |
* Rain latest hour (hover to see other rain measurements)
** Current wind speed in m/s (hover to see current wind gust speed)